Airfield :
LOGIN :

Register | Disclaimer

   EN    FR    IT 

 










Legend :    VFR   Marginal VFR   IFR   Intensive IFR   Very Intensive IFR
Visi :
Ceiling :
>= 8 km
>= 3000ft
5 to 8 km
1000 to 3000 ft
1500m to 5 km
500 to 1000 ft
800 to 1500m
200 to 500 ft
< 800m
< 200 ft
Symbols :   Thunderstorms  Fog  Heavy snow  Heavy precipitations  Wind > 20 kt
SIGMETs :     Misc.  Thunderstorms  Icing  Turbulence  Mountain Waves  Volcanic Ashes






- Airport Elevation : 27 ft
- IATA code : PMI


LEPA - Palma de Mallorca

CURRENT METAR :
  • 260000Z 08003KT CAVOK 24/20 Q1011 NOSIG

EXPIRED METARs :
  • 252330Z 09003KT 060V140 CAVOK 25/20 Q1011 NOSIG
  • 252300Z 06003KT 030V130 CAVOK 25/20 Q1011 NOSIG
  • 252230Z VRB02KT 9999 FEW028 25/21 Q1011 NOSIG
  • 252200Z 05005KT 010V070 9999 FEW024 25/20 Q1011 NOSIG

TAF TAF LEPA
Valid from the 26 at 00:00 until the 27 at 00:00 UTC


252300Z 2600/2624 05005KT 9999 FEW040 TX30/2612Z TN21/2606Z
BECMG 2606/2608 06015KT
TEMPO 2611/2616 06015G25KT
BECMG 2620/2622 05005KT



MET'MAP, your aeronautical weather chart ! - Copyright ORBIFLY December 2007 - Disclaimer

ORBIFLY MET'MAP TEAM :

Programming & Development : Alexandra Zaïnal
Concept & original design : Baudouin d'Aumeries
Assistance for programming : Marc-Olivier Méhu
Technical & hardware support : Manuel Goepfert

Contact : metmap@orbifly.com




SOURCES & CREDITS :

   NOAA